Time;durP1;ratioP1;P1;durP2;ratioP2;P2;SDS_P1;SDS_P2;PMS_P1;PMS_P2;Temp;Humidity;BMP_temperature;BMP_pressure;BME280_temperature;BME280_humidity;BME280_pressure;Samples;Min_cycle;Max_cycle;Signal;HPM_P1;HPM_P2
2022/10/31 00:02:23;;;;;;;73.93;11.67;;;14.40;99.90;;;;;;5049107;28;20165;-84
2022/10/31 00:04:49;;;;;;;76.07;12.63;;;14.40;99.90;;;;;;5048237;28;20197;-84
2022/10/31 00:07:14;;;;;;;72.50;11.10;;;14.40;99.90;;;;;;5047859;28;20173;-84
2022/10/31 00:09:40;;;;;;;80.80;12.37;;;14.40;99.90;;;;;;5049472;28;20181;-84
2022/10/31 00:12:06;;;;;;;75.83;11.63;;;14.40;99.90;;;;;;5048837;28;20169;-83
2022/10/31 00:14:31;;;;;;;74.80;11.93;;;14.40;99.90;;;;;;5048045;28;20219;-84
2022/10/31 00:16:57;;;;;;;74.03;10.93;;;14.40;99.90;;;;;;5047807;28;20189;-84
2022/10/31 00:19:23;;;;;;;71.80;11.40;;;14.40;99.90;;;;;;5044824;28;20255;-84
2022/10/31 00:21:51;;;;;;;75.23;12.17;;;14.30;99.90;;;;;;5048606;28;20522;-83
2022/10/31 00:24:16;;;;;;;74.90;12.50;;;14.30;99.90;;;;;;5048651;28;20268;-84
2022/10/31 00:26:42;;;;;;;70.60;10.87;;;14.30;99.90;;;;;;5048700;28;20423;-84
2022/10/31 00:29:07;;;;;;;77.23;13.77;;;14.30;99.90;;;;;;5048344;28;20223;-84
2022/10/31 00:31:33;;;;;;;73.97;11.60;;;14.30;99.90;;;;;;5049018;28;20211;-84
2022/10/31 00:34:02;;;;;;;72.97;11.80;;;14.30;99.90;;;;;;5046902;28;20200;-84
2022/10/31 00:36:28;;;;;;;74.67;12.53;;;14.30;99.90;;;;;;5046379;28;20193;-84
2022/10/31 00:38:54;;;;;;;72.97;12.80;;;14.20;99.90;;;;;;5048196;28;20454;-84
2022/10/31 00:41:20;;;;;;;83.63;13.63;;;14.20;99.90;;;;;;5061440;28;20440;-84
2022/10/31 00:43:46;;;;;;;80.20;12.80;;;14.30;99.90;;;;;;5048305;28;20468;-84
2022/10/31 00:46:13;;;;;;;84.90;13.60;;;14.30;99.90;;;;;;5048142;28;20168;-84
2022/10/31 00:48:39;;;;;;;72.37;12.80;;;14.30;99.90;;;;;;5046928;28;20439;-84
2022/10/31 00:51:05;;;;;;;76.10;11.50;;;14.30;99.90;;;;;;5048191;28;20404;-84
2022/10/31 00:53:30;;;;;;;72.40;13.80;;;14.30;99.90;;;;;;5046657;28;20224;-84
2022/10/31 00:55:56;;;;;;;76.07;16.80;;;14.30;99.90;;;;;;5047048;28;20412;-83
2022/10/31 00:58:22;;;;;;;72.80;14.33;;;14.30;99.90;;;;;;5046317;28;20175;-84
2022/10/31 01:00:54;;;;;;;74.17;13.00;;;14.30;99.90;;;;;;5048672;28;20168;-84
2022/10/31 01:03:22;;;;;;;74.40;15.00;;;14.30;99.90;;;;;;5048225;28;20185;-84
2022/10/31 01:06:06;;;;;;;75.83;12.73;;;14.30;99.90;;;;;;5048167;28;20400;-84
2022/10/31 01:08:33;;;;;;;81.87;15.00;;;14.20;99.90;;;;;;5045219;28;20384;-84
2022/10/31 01:11:09;;;;;;;76.17;16.43;;;14.20;99.90;;;;;;5046650;28;20404;-84
2022/10/31 01:13:35;;;;;;;78.30;15.53;;;14.20;99.90;;;;;;5048261;28;20556;-84
2022/10/31 01:16:06;;;;;;;71.30;14.50;;;14.30;99.90;;;;;;5051476;28;20414;-84
2022/10/31 01:18:33;;;;;;;74.57;17.40;;;14.20;99.90;;;;;;5050006;28;20388;-84
2022/10/31 01:21:06;;;;;;;82.83;16.43;;;14.30;99.90;;;;;;5050008;28;20415;-84
2022/10/31 01:23:32;;;;;;;73.60;14.63;;;14.20;99.90;;;;;;5047107;28;20454;-84
2022/10/31 01:26:19;;;;;;;74.87;15.20;;;14.20;99.90;;;;;;5048189;28;20419;-84
2022/10/31 01:28:50;;;;;;;79.60;18.80;;;14.20;99.90;;;;;;5049429;28;20479;-84
2022/10/31 01:31:18;;;;;;;78.27;19.27;;;14.10;99.90;;;;;;5047421;28;20400;-84
2022/10/31 01:33:44;;;;;;;75.13;17.27;;;14.20;99.90;;;;;;5048333;28;20435;-84
2022/10/31 01:36:24;;;;;;;72.80;17.10;;;14.20;99.90;;;;;;5048212;28;20396;-84
2022/10/31 01:38:51;;;;;;;75.07;16.97;;;14.20;99.90;;;;;;5048507;28;20783;-84
2022/10/31 01:41:20;;;;;;;80.17;17.43;;;14.20;99.90;;;;;;5049547;28;20396;-84
2022/10/31 01:43:50;;;;;;;77.57;19.90;;;14.10;99.90;;;;;;5051269;28;20876;-84
2022/10/31 01:46:21;;;;;;;76.30;19.23;;;14.10;99.90;;;;;;5050041;28;20412;-84
2022/10/31 01:48:47;;;;;;;77.37;18.90;;;14.10;99.90;;;;;;5049691;28;20424;-84
2022/10/31 01:51:15;;;;;;;81.03;18.60;;;14.10;99.90;;;;;;5049995;28;20408;-84
2022/10/31 01:53:42;;;;;;;80.93;19.90;;;14.10;99.90;;;;;;5047821;28;20482;-84
2022/10/31 01:56:08;;;;;;;76.63;22.03;;;14.10;99.90;;;;;;5050972;28;20436;-84
2022/10/31 01:58:35;;;;;;;78.70;20.43;;;14.10;99.90;;;;;;5050371;28;20404;-84
2022/10/31 02:01:01;;;;;;;77.70;20.90;;;14.00;99.90;;;;;;5050090;28;20462;-84
2022/10/31 02:03:28;;;;;;;81.00;18.57;;;14.10;99.90;;;;;;5047054;28;20451;-84
2022/10/31 02:05:56;;;;;;;78.70;19.33;;;14.00;99.90;;;;;;5049523;28;20503;-84
2022/10/31 02:08:25;;;;;;;87.10;20.43;;;14.10;99.90;;;;;;5050796;28;20403;-83
2022/10/31 02:10:51;;;;;;;77.23;17.80;;;14.00;99.90;;;;;;5051250;28;20400;-84
2022/10/31 02:13:18;;;;;;;76.67;16.90;;;14.00;99.90;;;;;;5050743;28;20415;-84
2022/10/31 02:15:48;;;;;;;77.00;17.13;;;14.00;99.90;;;;;;5050498;28;20438;-84
2022/10/31 02:18:14;;;;;;;76.57;17.40;;;14.00;99.90;;;;;;5050654;28;20380;-81
2022/10/31 02:21:06;;;;;;;75.60;15.40;;;14.00;99.90;;;;;;5050254;28;20494;-84
2022/10/31 02:24:09;;;;;;;73.90;16.17;;;13.90;99.90;;;;;;5050161;28;20439;-84
2022/10/31 02:26:58;;;;;;;76.10;19.23;;;13.90;99.90;;;;;;5050160;28;20409;-84
2022/10/31 02:30:07;;;;;;;75.33;19.43;;;13.90;99.90;;;;;;5047645;28;20419;-84
2022/10/31 02:32:56;;;;;;;76.17;18.00;;;13.90;99.90;;;;;;5049951;28;20414;-84
2022/10/31 02:35:51;;;;;;;75.10;17.50;;;13.90;99.90;;;;;;5022341;28;20412;-84
2022/10/31 02:38:43;;;;;;;80.50;18.10;;;13.80;99.90;;;;;;5049172;28;20411;-84
2022/10/31 02:41:47;;;;;;;77.03;19.17;;;13.90;99.90;;;;;;5039852;28;20475;-84
2022/10/31 02:44:17;;;;;;;77.67;18.27;;;13.80;99.90;;;;;;5025261;28;20463;-84
2022/10/31 02:46:52;;;;;;;76.60;17.57;;;13.80;99.90;;;;;;5049375;28;20422;-84
2022/10/31 02:49:29;;;;;;;78.07;17.77;;;13.70;99.90;;;;;;5049965;28;20442;-84
2022/10/31 02:51:55;;;;;;;75.90;17.90;;;13.70;99.90;;;;;;5049447;28;20411;-84
2022/10/31 02:54:26;;;;;;;79.80;17.73;;;13.70;99.90;;;;;;5047235;28;20962;-84
2022/10/31 02:57:02;;;;;;;79.90;16.67;;;13.70;99.90;;;;;;5050124;28;20200;-84
2022/10/31 02:59:30;;;;;;;78.23;18.93;;;13.70;99.90;;;;;;5050381;28;20494;-84
2022/10/31 03:02:13;;;;;;;76.10;17.83;;;13.70;99.90;;;;;;5046595;28;20993;-84
2022/10/31 03:04:41;;;;;;;76.10;19.40;;;13.70;99.90;;;;;;5049659;28;20432;-84
2022/10/31 03:07:45;;;;;;;78.13;17.50;;;13.70;99.90;;;;;;5047947;28;20410;-84
2022/10/31 03:10:13;;;;;;;76.70;20.13;;;13.70;99.90;;;;;;5049568;28;20427;-84
2022/10/31 03:12:43;;;;;;;75.60;16.60;;;13.70;99.90;;;;;;5050286;28;20408;-84
2022/10/31 03:15:21;;;;;;;72.60;16.40;;;13.70;99.90;;;;;;5050258;28;20404;-84
2022/10/31 03:17:58;;;;;;;74.67;17.43;;;13.70;99.90;;;;;;5047328;28;20744;-84
2022/10/31 03:20:33;;;;;;;74.10;17.90;;;13.70;99.90;;;;;;5046177;28;20427;-84
2022/10/31 03:23:00;;;;;;;81.50;18.97;;;13.60;99.90;;;;;;5048903;28;20491;-84
2022/10/31 03:25:27;;;;;;;80.23;20.13;;;13.60;99.90;;;;;;5049476;28;20400;-84
2022/10/31 03:27:54;;;;;;;75.27;17.03;;;13.60;99.90;;;;;;5048618;28;20419;-84
2022/10/31 03:30:20;;;;;;;77.77;17.53;;;13.60;99.90;;;;;;5049281;28;20434;-83
2022/10/31 03:32:55;;;;;;;78.50;19.03;;;13.60;99.90;;;;;;5049336;28;20424;-84
2022/10/31 03:35:23;;;;;;;74.50;20.00;;;13.60;99.90;;;;;;5048557;28;20146;-84
2022/10/31 03:37:51;;;;;;;81.23;20.33;;;13.60;99.90;;;;;;5049598;28;20431;-83
2022/10/31 03:40:20;;;;;;;81.70;20.20;;;13.60;99.90;;;;;;5048988;28;20416;-84
2022/10/31 03:42:56;;;;;;;74.33;20.57;;;13.60;99.90;;;;;;5049109;28;20423;-84
2022/10/31 03:45:44;;;;;;;77.70;21.30;;;13.60;99.90;;;;;;5049069;28;20380;-84
2022/10/31 03:48:12;;;;;;;79.27;19.67;;;13.60;99.90;;;;;;5046514;28;20408;-84
2022/10/31 03:50:53;;;;;;;78.17;21.33;;;13.60;99.90;;;;;;5048983;28;20474;-84
2022/10/31 03:54:01;;;;;;;76.13;18.23;;;13.60;99.90;;;;;;5048150;28;20412;-84
2022/10/31 03:56:33;;;;;;;76.70;20.17;;;13.60;99.90;;;;;;5017114;28;20412;-84
2022/10/31 03:59:15;;;;;;;78.77;21.47;;;13.60;99.90;;;;;;5049417;28;20435;-84
2022/10/31 04:01:48;;;;;;;80.47;21.63;;;13.60;99.90;;;;;;5047576;28;20404;-84
2022/10/31 04:04:14;;;;;;;76.87;24.67;;;13.50;99.90;;;;;;5048896;28;20436;-84
2022/10/31 04:06:43;;;;;;;79.40;29.33;;;13.40;99.90;;;;;;5048754;28;20400;-84
2022/10/31 04:09:10;;;;;;;83.33;33.00;;;13.40;99.90;;;;;;5048656;28;20412;-84
2022/10/31 04:11:45;;;;;;;82.77;39.00;;;13.40;99.90;;;;;;5048508;28;20402;-84
2022/10/31 04:14:12;;;;;;;82.50;34.25;;;13.20;99.90;;;;;;5048312;28;20419;-84
2022/10/31 04:16:42;;;;;;;85.00;34.90;;;13.10;99.90;;;;;;5048675;28;20165;-84
2022/10/31 04:19:07;;;;;;;84.40;30.30;;;13.10;99.90;;;;;;5049217;28;20427;-84
2022/10/31 04:21:33;;;;;;;86.10;38.10;;;13.10;99.90;;;;;;5048702;28;20475;-84
2022/10/31 04:23:59;;;;;;;82.87;32.87;;;13.10;99.90;;;;;;5046624;28;20192;-84
2022/10/31 04:26:25;;;;;;;81.60;36.30;;;13.20;99.90;;;;;;5046114;28;20231;-84
2022/10/31 04:28:50;;;;;;;84.80;34.50;;;13.20;99.90;;;;;;5047751;28;20252;-84
2022/10/31 04:31:16;;;;;;;82.77;31.30;;;13.20;99.90;;;;;;5046918;28;20399;-84
2022/10/31 04:33:42;;;;;;;88.00;34.77;;;13.20;99.90;;;;;;5048581;28;20169;-84
2022/10/31 04:36:08;;;;;;;82.83;35.43;;;13.20;99.90;;;;;;5045605;28;20964;-84
2022/10/31 04:38:34;;;;;;;82.73;34.17;;;13.20;99.90;;;;;;5048351;28;20189;-84
2022/10/31 04:41:00;;;;;;;81.93;31.40;;;13.20;99.90;;;;;;5048769;28;20404;-84
2022/10/31 04:43:25;;;;;;;80.60;31.50;;;13.00;99.90;;;;;;5047824;28;20973;-84
2022/10/31 04:45:51;;;;;;;84.57;31.33;;;13.00;99.90;;;;;;5047195;28;20149;-84
2022/10/31 04:48:17;;;;;;;80.10;31.37;;;13.00;99.90;;;;;;5044794;28;20172;-84
2022/10/31 04:50:43;;;;;;;78.87;30.57;;;13.10;99.90;;;;;;5048335;28;20631;-83
2022/10/31 04:53:08;;;;;;;79.13;28.67;;;13.00;99.90;;;;;;5048449;28;20169;-83
2022/10/31 04:55:35;;;;;;;84.73;28.37;;;13.10;99.90;;;;;;5048569;28;20438;-84
2022/10/31 04:58:01;;;;;;;83.97;30.90;;;13.10;99.90;;;;;;5045396;28;20165;-84
2022/10/31 05:00:27;;;;;;;83.27;36.03;;;13.10;99.90;;;;;;5046552;28;20474;-84
2022/10/31 05:02:55;;;;;;;81.80;36.70;;;13.20;99.90;;;;;;5048460;28;20407;-84
2022/10/31 05:05:24;;;;;;;84.18;37.65;;;13.10;99.90;;;;;;5047048;28;20165;-84
2022/10/31 05:07:50;;;;;;;78.67;32.23;;;13.00;99.90;;;;;;5046015;28;20162;-84
2022/10/31 05:10:22;;;;;;;81.47;35.50;;;13.10;99.90;;;;;;5045393;28;20757;-84
2022/10/31 05:12:50;;;;;;;84.43;39.17;;;12.90;99.90;;;;;;5047328;28;20373;-84
2022/10/31 05:15:16;;;;;;;83.35;36.58;;;13.00;99.90;;;;;;5048451;28;20778;-83
2022/10/31 05:17:42;;;;;;;85.20;36.20;;;13.00;99.90;;;;;;5047884;28;20158;-84
2022/10/31 05:20:09;;;;;;;80.43;33.33;;;12.90;99.90;;;;;;5045928;28;20439;-84
2022/10/31 05:22:35;;;;;;;84.90;36.03;;;13.00;99.90;;;;;;5047820;28;20439;-84
2022/10/31 05:25:00;;;;;;;85.60;36.40;;;12.90;99.90;;;;;;5048392;28;20447;-84
2022/10/31 05:27:26;;;;;;;80.23;30.20;;;12.70;99.90;;;;;;5109774;23;20225;-84
2022/10/31 05:29:52;;;;;;;82.67;34.00;;;12.70;99.90;;;;;;5034243;28;20189;-84
2022/10/31 05:32:17;;;;;;;83.67;30.90;;;12.60;99.90;;;;;;5036641;28;20168;-84
2022/10/31 05:34:43;;;;;;;83.83;32.53;;;12.70;99.90;;;;;;5035775;28;20732;-84
2022/10/31 05:37:09;;;;;;;85.63;29.83;;;12.60;99.90;;;;;;5036749;28;20256;-84
2022/10/31 05:39:34;;;;;;;90.40;29.53;;;12.60;99.90;;;;;;5035601;28;20189;-84
2022/10/31 05:42:00;;;;;;;84.27;27.13;;;12.60;99.90;;;;;;5036406;28;20596;-84
2022/10/31 05:44:26;;;;;;;84.70;29.80;;;12.60;99.90;;;;;;5036839;28;20185;-84
2022/10/31 05:46:51;;;;;;;78.50;30.20;;;12.50;99.90;;;;;;5036457;28;20182;-83
2022/10/31 05:49:17;;;;;;;86.70;28.87;;;12.50;99.90;;;;;;5036285;28;20177;-82
2022/10/31 05:51:46;;;;;;;82.28;29.17;;;12.50;99.90;;;;;;5036074;28;20157;-82
2022/10/31 05:54:12;;;;;;;78.43;27.33;;;12.50;99.90;;;;;;5035591;28;20176;-82
2022/10/31 05:56:37;;;;;;;83.50;32.33;;;12.60;99.90;;;;;;5036914;28;20252;-82
2022/10/31 05:59:03;;;;;;;84.13;30.10;;;12.60;99.90;;;;;;5038454;28;20185;-84
2022/10/31 06:01:28;;;;;;;85.23;29.23;;;12.60;99.90;;;;;;5040307;28;20188;-84
2022/10/31 06:03:54;;;;;;;84.27;32.27;;;12.60;99.90;;;;;;5040329;28;20192;-84
2022/10/31 06:06:20;;;;;;;81.70;28.53;;;12.70;99.90;;;;;;5039934;28;20161;-84
2022/10/31 06:08:45;;;;;;;81.53;29.73;;;12.60;99.90;;;;;;5040389;28;20185;-84
2022/10/31 06:11:11;;;;;;;83.80;28.63;;;12.60;99.90;;;;;;5038484;28;20177;-84
2022/10/31 06:13:36;;;;;;;81.70;31.73;;;12.60;99.90;;;;;;5039091;28;20536;-84
2022/10/31 06:16:02;;;;;;;80.77;31.60;;;12.70;99.90;;;;;;5039909;28;20169;-84
2022/10/31 06:18:28;;;;;;;83.90;36.03;;;12.70;99.90;;;;;;5039191;28;20506;-83
2022/10/31 06:20:53;;;;;;;84.77;38.73;;;12.80;99.90;;;;;;5040026;28;20165;-82
2022/10/31 06:23:19;;;;;;;83.43;33.33;;;12.70;99.90;;;;;;5039369;28;20623;-82
2022/10/31 06:25:49;;;;;;;83.50;35.07;;;12.80;99.90;;;;;;5039114;28;20180;-82
2022/10/31 06:28:15;;;;;;;81.93;36.97;;;12.80;99.90;;;;;;5039646;28;20174;-82
2022/10/31 06:30:40;;;;;;;89.37;39.37;;;12.80;99.90;;;;;;5039044;28;20195;-82
2022/10/31 06:33:06;;;;;;;84.97;37.67;;;12.80;99.90;;;;;;5039455;28;20173;-82
2022/10/31 06:35:32;;;;;;;82.80;35.57;;;12.80;99.90;;;;;;5039525;28;20157;-82
2022/10/31 06:37:58;;;;;;;85.80;37.57;;;12.80;99.90;;;;;;5039505;28;20222;-82
2022/10/31 06:40:24;;;;;;;83.33;33.63;;;12.80;99.90;;;;;;5055044;28;20458;-82
2022/10/31 06:43:00;;;;;;;84.47;34.87;;;12.80;99.90;;;;;;5039034;28;20236;-82
2022/10/31 06:45:29;;;;;;;82.27;40.80;;;12.80;99.90;;;;;;5039376;28;20412;-82
2022/10/31 06:47:55;;;;;;;80.77;32.40;;;12.70;99.90;;;;;;5039331;28;20404;-82
2022/10/31 06:50:21;;;;;;;83.32;39.72;;;12.80;99.90;;;;;;5039106;28;20558;-82
2022/10/31 06:52:55;;;;;;;86.50;36.43;;;12.70;99.90;;;;;;5039251;28;20591;-82
2022/10/31 06:55:22;;;;;;;85.72;29.65;;;12.70;99.90;;;;;;5039110;28;20408;-82
2022/10/31 06:57:59;;;;;;;85.88;37.60;;;12.70;99.90;;;;;;5038746;28;20166;-82
2022/10/31 07:00:26;;;;;;;80.70;30.77;;;12.80;99.90;;;;;;5038549;28;20192;-83
2022/10/31 07:02:56;;;;;;;85.00;36.67;;;12.90;99.90;;;;;;5039094;28;20166;-82
2022/10/31 07:05:29;;;;;;;86.38;37.95;;;12.90;99.90;;;;;;5039804;28;20412;-82
2022/10/31 07:07:56;;;;;;;90.40;37.38;;;12.80;99.90;;;;;;5054630;28;20169;-82
2022/10/31 07:10:23;;;;;;;90.07;35.97;;;12.80;99.90;;;;;;5037683;28;20177;-82
2022/10/31 07:13:00;;;;;;;85.03;37.95;;;12.80;99.90;;;;;;5038823;28;20161;-82
2022/10/31 07:15:28;;;;;;;83.80;32.75;;;12.80;99.90;;;;;;5038734;28;20145;-82
2022/10/31 07:17:54;;;;;;;87.63;31.27;;;12.80;99.90;;;;;;5037462;28;20176;-82
2022/10/31 07:20:23;;;;;;;82.85;28.85;;;12.70;99.90;;;;;;5038731;28;20185;-82
2022/10/31 07:22:49;;;;;;;84.28;28.83;;;12.60;99.90;;;;;;5038878;28;20153;-82
2022/10/31 07:25:15;;;;;;;83.57;31.97;;;12.70;99.90;;;;;;5038817;28;20512;-82
2022/10/31 07:27:42;;;;;;;83.43;35.80;;;12.80;99.90;;;;;;5038769;28;20256;-82
2022/10/31 07:30:10;;;;;;;84.65;39.08;;;12.90;99.90;;;;;;5038224;28;20181;-82
2022/10/31 07:32:47;;;;;;;84.57;34.83;;;13.00;99.90;;;;;;5038635;28;20165;-82
2022/10/31 07:35:21;;;;;;;82.43;33.72;;;13.10;99.90;;;;;;5038520;28;20228;-82
2022/10/31 07:37:47;;;;;;;81.20;25.20;;;13.20;99.90;;;;;;5038614;28;20174;-82
2022/10/31 07:40:13;;;;;;;82.97;22.60;;;13.10;99.90;;;;;;5037524;28;20239;-82
2022/10/31 07:42:47;;;;;;;79.93;26.40;;;13.10;99.90;;;;;;5037972;28;20521;-82
2022/10/31 07:45:18;;;;;;;88.70;32.37;;;13.10;99.90;;;;;;5037959;28;20428;-82
2022/10/31 07:47:46;;;;;;;76.97;24.13;;;13.20;99.90;;;;;;5038591;28;20383;-82
2022/10/31 07:50:23;;;;;;;81.80;20.77;;;13.20;99.90;;;;;;5037929;28;20420;-82
2022/10/31 07:53:08;;;;;;;76.80;21.87;;;13.30;99.90;;;;;;5038036;28;20400;-82
2022/10/31 07:55:34;;;;;;;77.57;22.00;;;13.20;99.90;;;;;;5038591;28;20442;-82
2022/10/31 07:58:02;;;;;;;84.23;23.63;;;13.10;99.90;;;;;;5037309;28;20192;-82
2022/10/31 08:00:29;;;;;;;80.75;27.42;;;13.10;99.90;;;;;;5038131;28;20416;-82
2022/10/31 08:03:09;;;;;;;85.50;27.50;;;13.20;99.90;;;;;;5037370;28;20161;-82
2022/10/31 08:05:36;;;;;;;79.17;22.87;;;13.20;99.90;;;;;;5038387;28;20376;-82
2022/10/31 08:08:02;;;;;;;78.53;26.35;;;13.20;99.90;;;;;;5037430;28;20396;-82
2022/10/31 08:10:28;;;;;;;84.80;30.50;;;13.20;99.90;;;;;;5037258;28;20197;-82
2022/10/31 08:13:03;;;;;;;81.30;35.70;;;13.20;99.90;;;;;;5037267;28;20407;-82
2022/10/31 08:15:29;;;;;;;87.93;44.13;;;13.00;99.90;;;;;;5037090;28;20161;-82
2022/10/31 08:17:55;;;;;;;83.03;33.10;;;13.00;99.90;;;;;;5036864;28;20457;-82
2022/10/31 08:20:21;;;;;;;84.90;31.70;;;12.90;99.90;;;;;;5034376;28;20519;-81
2022/10/31 08:22:58;;;;;;;82.15;32.63;;;13.00;99.90;;;;;;5036867;28;20164;-82
2022/10/31 08:25:28;;;;;;;85.50;31.02;;;12.90;99.90;;;;;;5035798;28;20644;-82
2022/10/31 08:27:55;;;;;;;85.63;29.58;;;13.00;99.90;;;;;;5035381;28;20193;-82
2022/10/31 08:30:23;;;;;;;84.50;30.97;;;13.00;99.90;;;;;;5035728;28;20724;-82
2022/10/31 08:33:02;;;;;;;90.93;27.70;;;13.00;99.90;;;;;;5036809;28;20479;-82
2022/10/31 08:35:28;;;;;;;80.07;26.10;;;13.00;99.90;;;;;;5037263;28;20396;-82
2022/10/31 08:37:55;;;;;;;83.83;32.23;;;13.00;99.90;;;;;;5035814;28;20173;-82
2022/10/31 08:40:20;;;;;;;81.70;32.23;;;13.10;99.90;;;;;;5036938;28;20423;-82
2022/10/31 08:42:46;;;;;;;83.87;33.63;;;13.10;99.90;;;;;;5037115;28;20403;-82
2022/10/31 08:45:12;;;;;;;81.57;34.83;;;13.20;99.90;;;;;;5037090;28;20830;-82
2022/10/31 08:47:37;;;;;;;85.23;41.20;;;13.30;99.90;;;;;;5037544;28;20573;-82
2022/10/31 08:50:04;;;;;;;85.90;42.20;;;13.40;99.90;;;;;;5037199;28;20177;-82
2022/10/31 08:52:29;;;;;;;93.20;43.57;;;13.50;99.90;;;;;;5036890;28;20157;-82
2022/10/31 08:54:57;;;;;;;82.13;36.00;;;13.60;99.90;;;;;;5037199;28;21045;-82
2022/10/31 08:57:23;;;;;;;85.40;33.50;;;13.60;99.90;;;;;;5037200;28;20161;-82
2022/10/31 08:59:48;;;;;;;84.30;38.93;;;13.60;99.90;;;;;;5036998;28;20428;-82
2022/10/31 09:02:14;;;;;;;83.50;34.43;;;13.60;99.90;;;;;;5037066;28;20248;-82
2022/10/31 09:04:39;;;;;;;88.13;34.07;;;13.70;99.90;;;;;;5037059;28;20280;-82
2022/10/31 09:07:05;;;;;;;82.93;31.13;;;13.70;99.90;;;;;;5036922;28;20165;-82
2022/10/31 09:09:31;;;;;;;86.30;38.07;;;13.70;99.90;;;;;;5036703;28;20189;-83
2022/10/31 09:11:56;;;;;;;86.60;35.13;;;13.70;99.90;;;;;;5035846;28;20192;-82
2022/10/31 09:14:22;;;;;;;82.40;34.50;;;13.80;99.90;;;;;;5036859;28;20185;-82
2022/10/31 09:16:47;;;;;;;78.73;28.43;;;13.80;99.90;;;;;;5037116;28;20219;-82
2022/10/31 09:19:13;;;;;;;84.53;25.43;;;14.00;99.90;;;;;;5037243;28;20192;-82
2022/10/31 09:21:39;;;;;;;86.80;36.43;;;14.00;99.90;;;;;;5036708;28;20181;-82
2022/10/31 09:24:05;;;;;;;94.43;38.30;;;13.90;99.90;;;;;;5035206;28;20189;-82
2022/10/31 09:26:30;;;;;;;89.33;35.03;;;13.90;99.90;;;;;;5036563;28;20225;-81
2022/10/31 09:28:58;;;;;;;81.70;28.17;;;13.90;99.90;;;;;;5036332;28;20467;-81
2022/10/31 09:31:23;;;;;;;86.30;36.73;;;14.00;99.90;;;;;;5035021;28;20224;-81
2022/10/31 09:33:49;;;;;;;85.97;34.60;;;14.00;99.90;;;;;;5037343;28;20420;-81
2022/10/31 09:36:15;;;;;;;84.67;38.57;;;14.00;99.90;;;;;;5040180;28;20169;-81
2022/10/31 09:38:40;;;;;;;82.83;32.83;;;14.10;99.90;;;;;;5039803;28;20193;-82
2022/10/31 09:41:40;;;;;;;83.17;31.83;;;14.20;99.90;;;;;;5039760;28;20203;-81
2022/10/31 09:44:17;;;;;;;88.47;35.57;;;14.30;99.90;;;;;;5039780;28;20186;-81
2022/10/31 09:47:11;;;;;;;85.10;33.77;;;14.30;99.90;;;;;;5040004;28;20901;-81
2022/10/31 09:49:58;;;;;;;81.37;27.60;;;14.40;99.90;;;;;;5040244;28;20420;-81
2022/10/31 09:52:32;;;;;;;80.73;26.93;;;14.60;99.90;;;;;;5040088;28;20388;-81
2022/10/31 09:55:03;;;;;;;79.47;21.17;;;14.80;99.90;;;;;;5040129;28;20909;-81
2022/10/31 09:57:33;;;;;;;76.57;23.17;;;14.90;99.90;;;;;;5040323;28;20861;-81
2022/10/31 10:00:00;;;;;;;79.20;22.40;;;14.90;99.90;;;;;;5040006;28;20939;-81
2022/10/31 10:02:41;;;;;;;77.87;21.47;;;14.90;99.90;;;;;;5039321;28;20768;-80
2022/10/31 10:05:12;;;;;;;81.67;21.70;;;15.00;99.90;;;;;;5040229;28;20572;-80
2022/10/31 10:08:00;;;;;;;82.20;26.73;;;15.10;99.90;;;;;;5039553;28;20910;-80
2022/10/31 10:10:26;;;;;;;77.70;22.90;;;15.30;99.90;;;;;;5039286;28;20416;-80
2022/10/31 10:13:12;;;;;;;87.53;25.47;;;15.50;99.90;;;;;;5039059;28;20427;-80
2022/10/31 10:16:06;;;;;;;77.13;20.70;;;15.70;99.90;;;;;;5037822;28;20191;-80
2022/10/31 10:19:04;;;;;;;85.30;30.30;;;15.60;99.90;;;;;;5039314;28;20743;-80
2022/10/31 10:22:06;;;;;;;78.60;25.10;;;15.80;99.90;;;;;;5037933;28;20435;-80
2022/10/31 10:24:50;;;;;;;82.37;24.43;;;16.00;99.90;;;;;;5038866;28;20428;-80
2022/10/31 10:27:36;;;;;;;82.40;22.97;;;15.90;99.90;;;;;;5038214;28;20416;-80
2022/10/31 10:30:03;;;;;;;85.53;24.10;;;15.90;99.90;;;;;;5028066;28;20795;-82
2022/10/31 10:32:40;;;;;;;79.43;20.63;;;15.90;99.90;;;;;;5037263;28;20413;-82
2022/10/31 10:35:24;;;;;;;83.00;24.50;;;16.00;99.90;;;;;;5038750;28;20383;-82
2022/10/31 10:37:55;;;;;;;78.80;18.63;;;16.10;99.90;;;;;;5037683;28;20467;-82
2022/10/31 10:40:24;;;;;;;76.37;19.37;;;16.20;99.90;;;;;;5038239;28;20423;-82
2022/10/31 10:43:25;;;;;;;80.00;20.90;;;16.20;99.90;;;;;;5039109;28;20927;-82
2022/10/31 10:49:21;;;;;;;85.37;21.37;;;16.10;99.90;;;;;;5038490;28;20493;-82
2022/10/31 10:52:27;;;;;;;81.67;20.00;;;16.10;99.90;;;;;;5039004;28;20397;-81
2022/10/31 10:55:15;;;;;;;87.57;17.47;;;16.10;99.90;;;;;;5037851;28;20401;-82
2022/10/31 10:57:58;;;;;;;78.50;18.47;;;16.10;99.90;;;;;;5038672;28;20943;-82
2022/10/31 11:00:35;;;;;;;79.13;17.33;;;16.10;99.90;;;;;;5038297;28;20412;-81
2022/10/31 11:03:02;;;;;;;75.50;17.63;;;16.10;99.90;;;;;;5037222;28;20459;-82
2022/10/31 11:05:51;;;;;;;75.93;18.10;;;16.10;99.90;;;;;;5038007;28;20767;-82
2022/10/31 11:08:24;;;;;;;78.50;19.07;;;16.20;99.90;;;;;;5038213;28;20391;-82
2022/10/31 11:11:03;;;;;;;79.00;20.63;;;16.30;99.90;;;;;;5037991;28;20403;-81
2022/10/31 11:13:31;;;;;;;79.30;20.20;;;16.40;99.90;;;;;;5036665;28;20471;-82
2022/10/31 11:16:04;;;;;;;86.80;18.83;;;16.60;99.90;;;;;;5037782;28;20919;-82
2022/10/31 11:18:36;;;;;;;73.57;15.83;;;16.70;99.90;;;;;;5036109;28;20476;-81
2022/10/31 11:21:04;;;;;;;75.77;17.50;;;16.80;99.90;;;;;;5038096;28;20768;-81
2022/10/31 11:23:31;;;;;;;78.20;18.53;;;16.80;99.90;;;;;;5037621;28;20960;-82
2022/10/31 11:25:59;;;;;;;73.90;15.57;;;16.70;99.90;;;;;;5037405;28;20429;-82
2022/10/31 11:28:29;;;;;;;77.23;18.40;;;16.60;99.90;;;;;;5142290;22;20899;-87
2022/10/31 11:30:58;;;;;;;78.90;17.07;;;16.50;99.90;;;;;;5021519;28;20403;-87
2022/10/31 11:33:39;;;;;;;76.80;16.00;;;16.50;99.90;;;;;;5021765;28;20890;-87
2022/10/31 11:36:25;;;;;;;75.73;18.23;;;16.60;99.90;;;;;;5022763;28;20382;-87
2022/10/31 11:38:52;;;;;;;74.97;16.40;;;16.60;99.90;;;;;;5022266;28;20433;-87
2022/10/31 11:41:28;;;;;;;78.80;16.50;;;16.60;99.90;;;;;;5022201;28;20521;-87
2022/10/31 11:43:57;;;;;;;74.30;16.63;;;16.60;99.90;;;;;;5022002;28;20439;-87
2022/10/31 11:46:33;;;;;;;79.80;16.53;;;16.70;99.90;;;;;;5021995;28;20762;-87
2022/10/31 11:48:59;;;;;;;78.03;18.80;;;16.70;99.90;;;;;;5023556;28;20493;-87
2022/10/31 11:51:32;;;;;;;79.87;17.53;;;16.90;99.90;;;;;;5022497;28;20406;-87
2022/10/31 11:54:01;;;;;;;77.67;19.53;;;16.90;99.90;;;;;;5021657;28;20395;-85
2022/10/31 11:56:27;;;;;;;75.80;18.87;;;17.00;99.90;;;;;;5026780;28;20429;-86
2022/10/31 11:59:34;;;;;;;79.77;19.10;;;17.00;99.90;;;;;;5022943;28;20427;-87
2022/10/31 12:02:01;;;;;;;79.60;17.43;;;17.00;99.90;;;;;;5025650;28;20447;-88
2022/10/31 12:05:02;;;;;;;82.83;18.33;;;17.00;99.90;;;;;;5035564;28;20485;-87
2022/10/31 12:07:27;;;;;;;78.73;19.20;;;17.00;99.90;;;;;;5025102;28;20419;-87
2022/10/31 12:09:53;;;;;;;75.33;18.27;;;17.00;99.90;;;;;;5036115;28;20416;-88
2022/10/31 12:12:41;;;;;;;76.37;22.33;;;17.10;99.90;;;;;;5036303;28;20176;-87
2022/10/31 12:15:09;;;;;;;82.63;20.83;;;17.10;99.90;;;;;;5052175;28;20419;-87
2022/10/31 12:17:38;;;;;;;72.83;18.57;;;17.10;99.90;;;;;;5033464;28;20392;-87
2022/10/31 12:20:23;;;;;;;76.60;16.37;;;17.20;99.90;;;;;;5036518;28;20406;-87
2022/10/31 12:23:02;;;;;;;73.07;15.00;;;17.30;99.90;;;;;;5035936;28;20422;-88
2022/10/31 12:25:30;;;;;;;76.00;14.87;;;17.30;99.90;;;;;;5036569;28;20590;-87
2022/10/31 12:28:27;;;;;;;78.93;15.03;;;17.30;99.90;;;;;;5036353;28;20866;-87
2022/10/31 12:31:24;;;;;;;80.93;18.30;;;17.40;99.90;;;;;;5035782;28;20415;-88
2022/10/31 12:34:08;;;;;;;72.77;13.70;;;17.30;99.90;;;;;;5034858;28;20489;-88
2022/10/31 12:36:40;;;;;;;75.47;13.47;;;17.40;99.90;;;;;;5035992;28;20396;-87
2022/10/31 12:39:44;;;;;;;75.23;14.80;;;17.40;99.90;;;;;;5035622;28;20414;-88
2022/10/31 12:42:36;;;;;;;75.57;14.77;;;17.40;99.90;;;;;;5035494;28;20410;-88
2022/10/31 12:45:32;;;;;;;72.30;14.30;;;17.40;99.90;;;;;;5034008;28;20575;-88
2022/10/31 12:48:26;;;;;;;86.40;15.20;;;17.30;99.90;;;;;;5031604;28;20423;-88
2022/10/31 12:51:12;;;;;;;77.30;15.87;;;17.30;99.90;;;;;;5035844;28;20459;-88
2022/10/31 12:53:58;;;;;;;81.70;14.70;;;17.30;99.90;;;;;;5034830;28;20411;-87
2022/10/31 12:56:38;;;;;;;72.80;15.27;;;17.40;99.90;;;;;;5035121;28;20438;-88